sensor_id;sensor_type;location;lat;lon;timestamp;P1;durP1;ratioP1;P2;durP2;ratioP2
62724;SDS011;49026;52.600;4.694;2024-03-06T00:01:05;22.00;;;14.73;;
62724;SDS011;49026;52.600;4.694;2024-03-06T00:03:31;32.95;;;18.48;;
62724;SDS011;49026;52.600;4.694;2024-03-06T00:05:57;36.47;;;19.98;;
62724;SDS011;49026;52.600;4.694;2024-03-06T00:08:24;37.35;;;22.23;;
62724;SDS011;49026;52.600;4.694;2024-03-06T00:10:52;40.22;;;21.85;;
62724;SDS011;49026;52.600;4.694;2024-03-06T00:13:17;31.83;;;20.02;;
62724;SDS011;49026;52.600;4.694;2024-03-06T00:15:43;28.05;;;15.90;;
62724;SDS011;49026;52.600;4.694;2024-03-06T00:18:08;27.88;;;15.50;;
62724;SDS011;49026;52.600;4.694;2024-03-06T00:20:34;30.35;;;18.00;;
62724;SDS011;49026;52.600;4.694;2024-03-06T00:23:01;24.20;;;14.38;;
62724;SDS011;49026;52.600;4.694;2024-03-06T00:25:29;24.08;;;14.02;;
62724;SDS011;49026;52.600;4.694;2024-03-06T00:27:54;30.10;;;17.58;;
62724;SDS011;49026;52.600;4.694;2024-03-06T00:30:25;34.28;;;20.05;;
62724;SDS011;49026;52.600;4.694;2024-03-06T00:32:51;29.98;;;18.25;;
62724;SDS011;49026;52.600;4.694;2024-03-06T00:35:16;38.10;;;24.15;;
62724;SDS011;49026;52.600;4.694;2024-03-06T00:37:41;34.17;;;20.25;;
62724;SDS011;49026;52.600;4.694;2024-03-06T00:40:07;28.42;;;16.58;;
62724;SDS011;49026;52.600;4.694;2024-03-06T00:42:33;27.20;;;17.13;;
62724;SDS011;49026;52.600;4.694;2024-03-06T00:44:58;29.02;;;17.10;;
62724;SDS011;49026;52.600;4.694;2024-03-06T00:47:23;20.10;;;12.25;;
62724;SDS011;49026;52.600;4.694;2024-03-06T00:49:49;40.35;;;24.70;;
62724;SDS011;49026;52.600;4.694;2024-03-06T00:52:14;45.63;;;26.88;;
62724;SDS011;49026;52.600;4.694;2024-03-06T00:54:39;30.40;;;17.33;;
62724;SDS011;49026;52.600;4.694;2024-03-06T00:57:04;45.55;;;25.75;;
62724;SDS011;49026;52.600;4.694;2024-03-06T00:59:30;45.90;;;26.17;;
62724;SDS011;49026;52.600;4.694;2024-03-06T01:01:55;34.08;;;19.55;;
62724;SDS011;49026;52.600;4.694;2024-03-06T01:04:21;43.42;;;24.92;;
62724;SDS011;49026;52.600;4.694;2024-03-06T01:06:47;34.47;;;18.73;;
62724;SDS011;49026;52.600;4.694;2024-03-06T01:09:13;32.83;;;19.58;;
62724;SDS011;49026;52.600;4.694;2024-03-06T01:11:40;32.63;;;20.63;;
62724;SDS011;49026;52.600;4.694;2024-03-06T01:14:05;37.10;;;20.25;;
62724;SDS011;49026;52.600;4.694;2024-03-06T01:16:31;32.80;;;17.27;;
62724;SDS011;49026;52.600;4.694;2024-03-06T01:18:56;43.58;;;27.42;;
62724;SDS011;49026;52.600;4.694;2024-03-06T01:21:23;44.80;;;24.83;;
62724;SDS011;49026;52.600;4.694;2024-03-06T01:23:49;33.03;;;18.25;;
62724;SDS011;49026;52.600;4.694;2024-03-06T01:26:16;37.47;;;19.83;;
62724;SDS011;49026;52.600;4.694;2024-03-06T01:28:42;44.00;;;23.85;;
62724;SDS011;49026;52.600;4.694;2024-03-06T01:31:07;39.33;;;24.15;;
62724;SDS011;49026;52.600;4.694;2024-03-06T01:33:35;42.88;;;23.02;;
62724;SDS011;49026;52.600;4.694;2024-03-06T01:36:00;38.85;;;20.77;;
62724;SDS011;49026;52.600;4.694;2024-03-06T01:38:29;40.42;;;22.23;;
62724;SDS011;49026;52.600;4.694;2024-03-06T01:40:54;54.03;;;26.13;;
62724;SDS011;49026;52.600;4.694;2024-03-06T01:43:20;50.17;;;31.23;;
62724;SDS011;49026;52.600;4.694;2024-03-06T01:45:47;29.92;;;18.30;;
62724;SDS011;49026;52.600;4.694;2024-03-06T01:48:13;35.40;;;20.05;;
62724;SDS011;49026;52.600;4.694;2024-03-06T01:53:08;37.42;;;23.75;;
62724;SDS011;49026;52.600;4.694;2024-03-06T01:55:34;43.17;;;24.08;;
62724;SDS011;49026;52.600;4.694;2024-03-06T01:58:00;38.75;;;22.95;;
62724;SDS011;49026;52.600;4.694;2024-03-06T02:00:25;43.13;;;26.65;;
62724;SDS011;49026;52.600;4.694;2024-03-06T02:02:51;46.78;;;26.30;;
62724;SDS011;49026;52.600;4.694;2024-03-06T02:05:19;35.17;;;20.30;;
62724;SDS011;49026;52.600;4.694;2024-03-06T02:07:45;36.88;;;21.38;;
62724;SDS011;49026;52.600;4.694;2024-03-06T02:10:12;39.45;;;21.95;;
62724;SDS011;49026;52.600;4.694;2024-03-06T02:12:37;34.17;;;20.15;;
62724;SDS011;49026;52.600;4.694;2024-03-06T02:15:03;34.50;;;20.50;;
62724;SDS011;49026;52.600;4.694;2024-03-06T02:17:29;34.88;;;19.67;;
62724;SDS011;49026;52.600;4.694;2024-03-06T02:19:54;44.67;;;25.35;;
62724;SDS011;49026;52.600;4.694;2024-03-06T02:22:20;33.97;;;18.75;;
62724;SDS011;49026;52.600;4.694;2024-03-06T02:24:47;58.55;;;29.10;;
62724;SDS011;49026;52.600;4.694;2024-03-06T02:27:13;40.58;;;23.30;;
62724;SDS011;49026;52.600;4.694;2024-03-06T02:29:41;39.28;;;23.15;;
62724;SDS011;49026;52.600;4.694;2024-03-06T02:32:07;31.65;;;19.60;;
62724;SDS011;49026;52.600;4.694;2024-03-06T02:34:33;47.20;;;25.30;;
62724;SDS011;49026;52.600;4.694;2024-03-06T02:36:58;46.30;;;25.60;;
62724;SDS011;49026;52.600;4.694;2024-03-06T02:39:24;41.47;;;23.55;;
62724;SDS011;49026;52.600;4.694;2024-03-06T02:41:49;32.65;;;18.25;;
62724;SDS011;49026;52.600;4.694;2024-03-06T02:44:14;31.15;;;18.40;;
62724;SDS011;49026;52.600;4.694;2024-03-06T02:46:40;30.02;;;15.70;;
62724;SDS011;49026;52.600;4.694;2024-03-06T02:49:06;30.00;;;16.75;;
62724;SDS011;49026;52.600;4.694;2024-03-06T02:51:31;39.10;;;21.33;;
62724;SDS011;49026;52.600;4.694;2024-03-06T02:53:56;40.90;;;21.60;;
62724;SDS011;49026;52.600;4.694;2024-03-06T02:56:22;26.00;;;15.30;;
62724;SDS011;49026;52.600;4.694;2024-03-06T02:58:49;37.20;;;19.25;;
62724;SDS011;49026;52.600;4.694;2024-03-06T03:01:17;27.83;;;15.18;;
62724;SDS011;49026;52.600;4.694;2024-03-06T03:03:42;29.45;;;15.55;;
62724;SDS011;49026;52.600;4.694;2024-03-06T03:06:10;34.90;;;19.67;;
62724;SDS011;49026;52.600;4.694;2024-03-06T03:08:38;36.97;;;19.92;;
62724;SDS011;49026;52.600;4.694;2024-03-06T03:11:04;33.10;;;18.90;;
62724;SDS011;49026;52.600;4.694;2024-03-06T03:13:29;31.90;;;18.02;;
62724;SDS011;49026;52.600;4.694;2024-03-06T03:15:55;48.03;;;21.67;;
62724;SDS011;49026;52.600;4.694;2024-03-06T03:18:23;32.10;;;20.08;;
62724;SDS011;49026;52.600;4.694;2024-03-06T03:20:49;33.83;;;21.40;;
62724;SDS011;49026;52.600;4.694;2024-03-06T03:23:14;30.63;;;19.17;;
62724;SDS011;49026;52.600;4.694;2024-03-06T03:25:42;35.17;;;19.83;;
62724;SDS011;49026;52.600;4.694;2024-03-06T03:28:08;34.78;;;23.27;;
62724;SDS011;49026;52.600;4.694;2024-03-06T03:30:34;37.45;;;22.35;;
62724;SDS011;49026;52.600;4.694;2024-03-06T03:33:00;33.25;;;21.52;;
62724;SDS011;49026;52.600;4.694;2024-03-06T03:35:25;34.20;;;21.00;;
62724;SDS011;49026;52.600;4.694;2024-03-06T03:37:53;29.33;;;19.75;;
62724;SDS011;49026;52.600;4.694;2024-03-06T03:40:18;36.97;;;22.75;;
62724;SDS011;49026;52.600;4.694;2024-03-06T03:42:44;39.95;;;25.63;;
62724;SDS011;49026;52.600;4.694;2024-03-06T03:45:14;34.47;;;22.23;;
62724;SDS011;49026;52.600;4.694;2024-03-06T03:47:40;38.85;;;24.90;;
62724;SDS011;49026;52.600;4.694;2024-03-06T03:50:07;41.50;;;24.35;;
62724;SDS011;49026;52.600;4.694;2024-03-06T03:52:33;49.05;;;30.48;;
62724;SDS011;49026;52.600;4.694;2024-03-06T03:55:02;60.60;;;36.53;;
62724;SDS011;49026;52.600;4.694;2024-03-06T03:57:28;66.50;;;38.88;;
62724;SDS011;49026;52.600;4.694;2024-03-06T03:59:55;71.68;;;43.28;;
62724;SDS011;49026;52.600;4.694;2024-03-06T04:02:23;82.10;;;49.15;;
62724;SDS011;49026;52.600;4.694;2024-03-06T04:04:48;109.95;;;55.45;;
62724;SDS011;49026;52.600;4.694;2024-03-06T04:07:13;106.55;;;53.70;;
62724;SDS011;49026;52.600;4.694;2024-03-06T04:09:41;115.68;;;56.25;;
62724;SDS011;49026;52.600;4.694;2024-03-06T04:12:11;113.97;;;58.67;;
62724;SDS011;49026;52.600;4.694;2024-03-06T04:14:36;129.60;;;60.70;;
62724;SDS011;49026;52.600;4.694;2024-03-06T04:17:01;125.63;;;61.50;;
62724;SDS011;49026;52.600;4.694;2024-03-06T04:19:28;142.20;;;67.03;;
62724;SDS011;49026;52.600;4.694;2024-03-06T04:21:54;161.88;;;71.30;;
62724;SDS011;49026;52.600;4.694;2024-03-06T04:24:19;149.73;;;66.18;;
62724;SDS011;49026;52.600;4.694;2024-03-06T04:26:44;161.35;;;70.18;;
62724;SDS011;49026;52.600;4.694;2024-03-06T04:29:10;143.23;;;68.22;;
62724;SDS011;49026;52.600;4.694;2024-03-06T04:31:35;159.82;;;73.85;;
62724;SDS011;49026;52.600;4.694;2024-03-06T04:34:03;152.73;;;70.35;;
62724;SDS011;49026;52.600;4.694;2024-03-06T04:36:28;169.60;;;74.82;;
62724;SDS011;49026;52.600;4.694;2024-03-06T04:38:53;183.55;;;81.43;;
62724;SDS011;49026;52.600;4.694;2024-03-06T04:41:19;171.23;;;74.32;;
62724;SDS011;49026;52.600;4.694;2024-03-06T04:43:44;185.05;;;79.88;;
62724;SDS011;49026;52.600;4.694;2024-03-06T04:46:13;180.77;;;77.63;;
62724;SDS011;49026;52.600;4.694;2024-03-06T04:48:39;186.02;;;80.82;;
62724;SDS011;49026;52.600;4.694;2024-03-06T04:51:05;201.88;;;84.22;;
62724;SDS011;49026;52.600;4.694;2024-03-06T04:53:33;196.43;;;80.47;;
62724;SDS011;49026;52.600;4.694;2024-03-06T04:55:58;202.73;;;88.88;;
62724;SDS011;49026;52.600;4.694;2024-03-06T04:58:23;218.15;;;89.60;;
62724;SDS011;49026;52.600;4.694;2024-03-06T05:00:48;233.68;;;92.90;;
62724;SDS011;49026;52.600;4.694;2024-03-06T05:03:16;222.55;;;86.65;;
62724;SDS011;49026;52.600;4.694;2024-03-06T05:05:41;223.75;;;90.47;;
62724;SDS011;49026;52.600;4.694;2024-03-06T05:08:08;218.85;;;89.90;;
62724;SDS011;49026;52.600;4.694;2024-03-06T05:10:36;201.65;;;81.70;;
62724;SDS011;49026;52.600;4.694;2024-03-06T05:13:01;228.57;;;94.18;;
62724;SDS011;49026;52.600;4.694;2024-03-06T05:15:27;218.07;;;91.18;;
62724;SDS011;49026;52.600;4.694;2024-03-06T05:17:52;235.27;;;90.50;;
62724;SDS011;49026;52.600;4.694;2024-03-06T05:20:17;242.45;;;96.70;;
62724;SDS011;49026;52.600;4.694;2024-03-06T05:22:43;256.92;;;99.50;;
62724;SDS011;49026;52.600;4.694;2024-03-06T05:25:08;266.33;;;101.70;;
62724;SDS011;49026;52.600;4.694;2024-03-06T05:27:36;288.75;;;111.63;;
62724;SDS011;49026;52.600;4.694;2024-03-06T05:30:01;291.83;;;102.82;;
62724;SDS011;49026;52.600;4.694;2024-03-06T05:32:29;289.25;;;111.00;;
62724;SDS011;49026;52.600;4.694;2024-03-06T05:34:55;310.52;;;107.88;;
62724;SDS011;49026;52.600;4.694;2024-03-06T05:37:20;298.98;;;109.80;;
62724;SDS011;49026;52.600;4.694;2024-03-06T05:39:47;314.67;;;104.28;;
62724;SDS011;49026;52.600;4.694;2024-03-06T05:42:15;305.83;;;109.30;;
62724;SDS011;49026;52.600;4.694;2024-03-06T05:44:40;298.38;;;104.85;;
62724;SDS011;49026;52.600;4.694;2024-03-06T05:47:08;303.15;;;102.47;;
62724;SDS011;49026;52.600;4.694;2024-03-06T05:49:35;294.85;;;98.22;;
62724;SDS011;49026;52.600;4.694;2024-03-06T05:52:01;322.90;;;109.57;;
62724;SDS011;49026;52.600;4.694;2024-03-06T05:54:26;283.92;;;98.20;;
62724;SDS011;49026;52.600;4.694;2024-03-06T05:56:54;307.52;;;101.28;;
62724;SDS011;49026;52.600;4.694;2024-03-06T05:59:21;306.77;;;107.85;;
62724;SDS011;49026;52.600;4.694;2024-03-06T06:01:49;311.55;;;104.57;;
62724;SDS011;49026;52.600;4.694;2024-03-06T06:04:14;330.70;;;112.50;;
62724;SDS011;49026;52.600;4.694;2024-03-06T06:06:39;332.20;;;107.63;;
62724;SDS011;49026;52.600;4.694;2024-03-06T06:09:05;337.75;;;112.57;;
62724;SDS011;49026;52.600;4.694;2024-03-06T06:11:31;345.88;;;113.25;;
62724;SDS011;49026;52.600;4.694;2024-03-06T06:13:58;338.08;;;111.10;;
62724;SDS011;49026;52.600;4.694;2024-03-06T06:16:23;296.88;;;93.32;;
62724;SDS011;49026;52.600;4.694;2024-03-06T06:18:48;314.48;;;103.45;;
62724;SDS011;49026;52.600;4.694;2024-03-06T06:21:14;381.38;;;114.90;;
62724;SDS011;49026;52.600;4.694;2024-03-06T06:23:41;351.73;;;110.95;;
62724;SDS011;49026;52.600;4.694;2024-03-06T06:26:09;337.42;;;105.82;;
62724;SDS011;49026;52.600;4.694;2024-03-06T06:28:36;293.13;;;95.90;;
62724;SDS011;49026;52.600;4.694;2024-03-06T06:31:02;313.90;;;99.90;;
62724;SDS011;49026;52.600;4.694;2024-03-06T06:33:29;317.98;;;105.20;;
62724;SDS011;49026;52.600;4.694;2024-03-06T06:35:54;321.13;;;105.20;;
62724;SDS011;49026;52.600;4.694;2024-03-06T06:38:22;326.77;;;109.43;;
62724;SDS011;49026;52.600;4.694;2024-03-06T06:40:47;328.08;;;105.90;;
62724;SDS011;49026;52.600;4.694;2024-03-06T06:43:13;395.55;;;119.38;;
62724;SDS011;49026;52.600;4.694;2024-03-06T06:45:38;366.15;;;113.60;;
62724;SDS011;49026;52.600;4.694;2024-03-06T06:48:04;317.95;;;106.25;;
62724;SDS011;49026;52.600;4.694;2024-03-06T06:50:29;330.27;;;108.95;;
62724;SDS011;49026;52.600;4.694;2024-03-06T06:52:56;415.00;;;119.07;;
62724;SDS011;49026;52.600;4.694;2024-03-06T06:55:24;373.05;;;115.22;;
62724;SDS011;49026;52.600;4.694;2024-03-06T06:57:49;361.75;;;115.93;;
62724;SDS011;49026;52.600;4.694;2024-03-06T07:00:18;448.92;;;111.72;;
62724;SDS011;49026;52.600;4.694;2024-03-06T07:02:46;398.27;;;115.68;;
62724;SDS011;49026;52.600;4.694;2024-03-06T07:05:12;392.58;;;116.72;;
62724;SDS011;49026;52.600;4.694;2024-03-06T07:07:38;348.90;;;105.82;;
62724;SDS011;49026;52.600;4.694;2024-03-06T07:10:06;366.40;;;106.25;;
62724;SDS011;49026;52.600;4.694;2024-03-06T07:12:33;370.65;;;105.82;;
62724;SDS011;49026;52.600;4.694;2024-03-06T07:15:00;337.83;;;102.75;;
62724;SDS011;49026;52.600;4.694;2024-03-06T07:17:27;324.70;;;96.93;;
62724;SDS011;49026;52.600;4.694;2024-03-06T07:19:55;335.05;;;103.80;;
62724;SDS011;49026;52.600;4.694;2024-03-06T07:22:23;339.95;;;103.35;;
62724;SDS011;49026;52.600;4.694;2024-03-06T07:24:48;290.08;;;86.25;;
62724;SDS011;49026;52.600;4.694;2024-03-06T07:27:16;294.48;;;88.03;;
62724;SDS011;49026;52.600;4.694;2024-03-06T07:29:42;319.63;;;90.47;;
62724;SDS011;49026;52.600;4.694;2024-03-06T07:32:07;306.25;;;88.93;;
62724;SDS011;49026;52.600;4.694;2024-03-06T07:34:32;258.55;;;79.97;;
62724;SDS011;49026;52.600;4.694;2024-03-06T07:36:58;248.25;;;70.65;;
62724;SDS011;49026;52.600;4.694;2024-03-06T07:39:29;262.20;;;75.95;;
62724;SDS011;49026;52.600;4.694;2024-03-06T07:41:56;262.13;;;78.60;;
62724;SDS011;49026;52.600;4.694;2024-03-06T07:44:21;168.02;;;54.67;;
62724;SDS011;49026;52.600;4.694;2024-03-06T07:46:47;244.88;;;72.47;;
62724;SDS011;49026;52.600;4.694;2024-03-06T07:49:15;236.18;;;69.28;;
62724;SDS011;49026;52.600;4.694;2024-03-06T07:51:40;193.02;;;59.28;;
62724;SDS011;49026;52.600;4.694;2024-03-06T07:54:09;237.15;;;72.32;;
62724;SDS011;49026;52.600;4.694;2024-03-06T07:56:34;126.18;;;45.92;;
62724;SDS011;49026;52.600;4.694;2024-03-06T07:59:00;216.50;;;66.97;;
62724;SDS011;49026;52.600;4.694;2024-03-06T08:01:26;198.27;;;63.92;;
62724;SDS011;49026;52.600;4.694;2024-03-06T08:03:53;111.93;;;44.45;;
62724;SDS011;49026;52.600;4.694;2024-03-06T08:06:19;77.78;;;38.03;;
62724;SDS011;49026;52.600;4.694;2024-03-06T08:08:47;121.90;;;47.85;;
62724;SDS011;49026;52.600;4.694;2024-03-06T08:11:21;146.93;;;56.33;;
62724;SDS011;49026;52.600;4.694;2024-03-06T08:13:48;148.00;;;55.38;;
62724;SDS011;49026;52.600;4.694;2024-03-06T08:16:14;100.40;;;43.53;;
62724;SDS011;49026;52.600;4.694;2024-03-06T08:18:39;78.50;;;36.80;;
62724;SDS011;49026;52.600;4.694;2024-03-06T08:21:04;158.63;;;57.70;;
62724;SDS011;49026;52.600;4.694;2024-03-06T08:23:31;83.38;;;37.38;;
62724;SDS011;49026;52.600;4.694;2024-03-06T08:25:56;97.60;;;42.38;;
62724;SDS011;49026;52.600;4.694;2024-03-06T08:28:21;98.88;;;43.83;;
62724;SDS011;49026;52.600;4.694;2024-03-06T08:30:49;85.57;;;39.60;;
62724;SDS011;49026;52.600;4.694;2024-03-06T08:33:14;60.15;;;34.63;;
62724;SDS011;49026;52.600;4.694;2024-03-06T08:35:41;105.00;;;43.75;;
62724;SDS011;49026;52.600;4.694;2024-03-06T08:38:06;108.90;;;48.42;;
62724;SDS011;49026;52.600;4.694;2024-03-06T08:40:32;102.28;;;46.72;;
62724;SDS011;49026;52.600;4.694;2024-03-06T08:42:57;101.07;;;44.67;;
62724;SDS011;49026;52.600;4.694;2024-03-06T08:45:23;102.85;;;45.20;;
62724;SDS011;49026;52.600;4.694;2024-03-06T08:47:51;100.43;;;41.80;;
62724;SDS011;49026;52.600;4.694;2024-03-06T08:50:19;114.80;;;44.72;;
62724;SDS011;49026;52.600;4.694;2024-03-06T08:52:47;116.68;;;45.45;;
62724;SDS011;49026;52.600;4.694;2024-03-06T08:55:16;112.60;;;45.80;;
62724;SDS011;49026;52.600;4.694;2024-03-06T08:57:44;119.00;;;45.20;;
62724;SDS011;49026;52.600;4.694;2024-03-06T09:00:09;118.40;;;46.00;;
62724;SDS011;49026;52.600;4.694;2024-03-06T09:02:39;122.85;;;47.88;;
62724;SDS011;49026;52.600;4.694;2024-03-06T09:05:07;138.98;;;51.40;;
62724;SDS011;49026;52.600;4.694;2024-03-06T09:07:35;129.93;;;47.38;;
62724;SDS011;49026;52.600;4.694;2024-03-06T09:10:06;122.32;;;46.42;;
62724;SDS011;49026;52.600;4.694;2024-03-06T09:12:32;119.20;;;47.50;;
62724;SDS011;49026;52.600;4.694;2024-03-06T09:14:57;133.40;;;46.10;;
62724;SDS011;49026;52.600;4.694;2024-03-06T09:17:25;129.45;;;49.20;;
62724;SDS011;49026;52.600;4.694;2024-03-06T09:19:53;135.52;;;48.75;;
62724;SDS011;49026;52.600;4.694;2024-03-06T09:22:19;111.47;;;45.35;;
62724;SDS011;49026;52.600;4.694;2024-03-06T09:24:44;105.05;;;45.92;;
62724;SDS011;49026;52.600;4.694;2024-03-06T09:27:10;145.82;;;54.33;;
62724;SDS011;49026;52.600;4.694;2024-03-06T09:29:35;79.95;;;35.15;;
62724;SDS011;49026;52.600;4.694;2024-03-06T09:32:00;125.30;;;50.15;;
62724;SDS011;49026;52.600;4.694;2024-03-06T09:34:26;92.13;;;42.85;;
62724;SDS011;49026;52.600;4.694;2024-03-06T09:36:54;103.07;;;47.88;;
62724;SDS011;49026;52.600;4.694;2024-03-06T09:39:19;117.72;;;49.45;;
62724;SDS011;49026;52.600;4.694;2024-03-06T09:41:49;103.85;;;48.97;;
62724;SDS011;49026;52.600;4.694;2024-03-06T09:44:15;105.38;;;46.67;;
62724;SDS011;49026;52.600;4.694;2024-03-06T09:46:42;85.75;;;43.30;;
62724;SDS011;49026;52.600;4.694;2024-03-06T09:49:13;103.38;;;47.90;;
62724;SDS011;49026;52.600;4.694;2024-03-06T09:51:42;100.78;;;48.28;;
62724;SDS011;49026;52.600;4.694;2024-03-06T09:54:14;97.97;;;47.22;;
62724;SDS011;49026;52.600;4.694;2024-03-06T09:56:40;95.10;;;47.92;;
62724;SDS011;49026;52.600;4.694;2024-03-06T09:59:08;84.70;;;44.33;;
62724;SDS011;49026;52.600;4.694;2024-03-06T10:01:33;60.47;;;32.38;;
62724;SDS011;49026;52.600;4.694;2024-03-06T10:04:20;83.20;;;44.15;;
62724;SDS011;49026;52.600;4.694;2024-03-06T10:06:50;62.50;;;36.20;;
62724;SDS011;49026;52.600;4.694;2024-03-06T10:09:25;62.97;;;35.53;;
62724;SDS011;49026;52.600;4.694;2024-03-06T10:11:54;67.22;;;41.55;;
62724;SDS011;49026;52.600;4.694;2024-03-06T10:14:21;58.83;;;34.42;;
62724;SDS011;49026;52.600;4.694;2024-03-06T10:19:33;51.17;;;30.95;;
62724;SDS011;49026;52.600;4.694;2024-03-06T10:21:59;50.88;;;32.97;;
62724;SDS011;49026;52.600;4.694;2024-03-06T10:24:27;52.13;;;31.88;;
62724;SDS011;49026;52.600;4.694;2024-03-06T10:26:56;55.80;;;33.97;;
62724;SDS011;49026;52.600;4.694;2024-03-06T10:29:23;41.22;;;27.25;;
62724;SDS011;49026;52.600;4.694;2024-03-06T10:31:58;52.05;;;33.17;;
62724;SDS011;49026;52.600;4.694;2024-03-06T10:34:27;45.85;;;32.95;;
62724;SDS011;49026;52.600;4.694;2024-03-06T10:36:57;42.80;;;30.17;;
62724;SDS011;49026;52.600;4.694;2024-03-06T10:39:28;44.20;;;30.65;;
62724;SDS011;49026;52.600;4.694;2024-03-06T10:41:58;43.08;;;28.98;;
62724;SDS011;49026;52.600;4.694;2024-03-06T10:44:27;41.92;;;28.85;;
62724;SDS011;49026;52.600;4.694;2024-03-06T10:46:58;46.80;;;31.17;;
62724;SDS011;49026;52.600;4.694;2024-03-06T10:49:25;45.33;;;30.23;;
62724;SDS011;49026;52.600;4.694;2024-03-06T10:51:52;41.72;;;28.10;;
62724;SDS011;49026;52.600;4.694;2024-03-06T10:54:24;39.70;;;27.95;;
62724;SDS011;49026;52.600;4.694;2024-03-06T10:59:18;35.60;;;23.90;;
62724;SDS011;49026;52.600;4.694;2024-03-06T11:01:49;36.75;;;25.90;;
62724;SDS011;49026;52.600;4.694;2024-03-06T11:04:15;37.65;;;25.80;;
62724;SDS011;49026;52.600;4.694;2024-03-06T11:06:41;34.42;;;23.88;;
62724;SDS011;49026;52.600;4.694;2024-03-06T11:09:06;33.65;;;23.35;;
62724;SDS011;49026;52.600;4.694;2024-03-06T11:11:46;33.72;;;24.77;;
62724;SDS011;49026;52.600;4.694;2024-03-06T11:14:12;34.63;;;25.92;;
62724;SDS011;49026;52.600;4.694;2024-03-06T11:16:55;31.10;;;22.77;;
62724;SDS011;49026;52.600;4.694;2024-03-06T11:19:22;31.10;;;22.63;;
62724;SDS011;49026;52.600;4.694;2024-03-06T11:21:48;28.13;;;18.40;;
62724;SDS011;49026;52.600;4.694;2024-03-06T11:24:20;31.75;;;22.77;;
62724;SDS011;49026;52.600;4.694;2024-03-06T11:26:47;26.63;;;20.08;;
62724;SDS011;49026;52.600;4.694;2024-03-06T11:30:02;29.42;;;20.52;;
62724;SDS011;49026;52.600;4.694;2024-03-06T11:32:36;33.10;;;23.13;;
62724;SDS011;49026;52.600;4.694;2024-03-06T11:35:03;28.50;;;21.00;;
62724;SDS011;49026;52.600;4.694;2024-03-06T11:37:33;33.63;;;23.17;;
62724;SDS011;49026;52.600;4.694;2024-03-06T11:39:59;32.15;;;21.80;;
62724;SDS011;49026;52.600;4.694;2024-03-06T11:42:32;29.50;;;21.60;;
62724;SDS011;49026;52.600;4.694;2024-03-06T11:45:01;33.38;;;23.92;;
62724;SDS011;49026;52.600;4.694;2024-03-06T11:47:55;30.90;;;22.73;;
62724;SDS011;49026;52.600;4.694;2024-03-06T11:50:21;32.08;;;22.67;;
62724;SDS011;49026;52.600;4.694;2024-03-06T11:52:49;34.22;;;23.77;;
62724;SDS011;49026;52.600;4.694;2024-03-06T11:55:14;30.20;;;20.10;;
62724;SDS011;49026;52.600;4.694;2024-03-06T11:57:40;28.35;;;19.20;;
62724;SDS011;49026;52.600;4.694;2024-03-06T12:00:05;29.42;;;21.20;;
62724;SDS011;49026;52.600;4.694;2024-03-06T12:02:32;30.13;;;22.35;;
62724;SDS011;49026;52.600;4.694;2024-03-06T12:04:57;31.95;;;20.85;;
62724;SDS011;49026;52.600;4.694;2024-03-06T12:07:27;33.72;;;23.35;;
62724;SDS011;49026;52.600;4.694;2024-03-06T12:09:52;34.58;;;23.45;;
62724;SDS011;49026;52.600;4.694;2024-03-06T12:12:18;31.70;;;22.92;;
62724;SDS011;49026;52.600;4.694;2024-03-06T12:14:43;38.00;;;24.60;;
62724;SDS011;49026;52.600;4.694;2024-03-06T12:17:21;32.60;;;24.08;;
62724;SDS011;49026;52.600;4.694;2024-03-06T12:19:47;41.72;;;23.40;;
62724;SDS011;49026;52.600;4.694;2024-03-06T12:22:13;35.28;;;23.10;;
62724;SDS011;49026;52.600;4.694;2024-03-06T12:24:41;29.45;;;21.98;;
62724;SDS011;49026;52.600;4.694;2024-03-06T12:27:07;31.40;;;23.85;;
62724;SDS011;49026;52.600;4.694;2024-03-06T12:29:34;29.58;;;21.15;;
62724;SDS011;49026;52.600;4.694;2024-03-06T12:32:00;33.22;;;22.73;;
62724;SDS011;49026;52.600;4.694;2024-03-06T12:34:27;28.92;;;20.95;;
62724;SDS011;49026;52.600;4.694;2024-03-06T12:36:52;28.42;;;22.08;;
62724;SDS011;49026;52.600;4.694;2024-03-06T12:39:18;32.45;;;22.40;;
62724;SDS011;49026;52.600;4.694;2024-03-06T12:41:48;33.20;;;22.90;;
62724;SDS011;49026;52.600;4.694;2024-03-06T12:44:15;33.40;;;24.48;;
62724;SDS011;49026;52.600;4.694;2024-03-06T12:46:41;38.63;;;25.77;;
62724;SDS011;49026;52.600;4.694;2024-03-06T12:49:09;37.63;;;24.95;;
62724;SDS011;49026;52.600;4.694;2024-03-06T12:51:35;33.05;;;22.83;;
62724;SDS011;49026;52.600;4.694;2024-03-06T12:54:02;32.33;;;23.92;;
62724;SDS011;49026;52.600;4.694;2024-03-06T12:56:31;35.85;;;23.77;;
62724;SDS011;49026;52.600;4.694;2024-03-06T12:58:56;28.13;;;17.42;;
62724;SDS011;49026;52.600;4.694;2024-03-06T13:01:22;32.60;;;23.20;;
62724;SDS011;49026;52.600;4.694;2024-03-06T13:03:47;34.00;;;21.20;;
62724;SDS011;49026;52.600;4.694;2024-03-06T13:06:14;36.72;;;24.92;;
62724;SDS011;49026;52.600;4.694;2024-03-06T13:08:40;35.60;;;24.58;;
62724;SDS011;49026;52.600;4.694;2024-03-06T13:11:05;30.13;;;20.75;;
62724;SDS011;49026;52.600;4.694;2024-03-06T13:13:31;32.05;;;20.65;;
62724;SDS011;49026;52.600;4.694;2024-03-06T13:15:59;35.55;;;22.13;;
62724;SDS011;49026;52.600;4.694;2024-03-06T13:18:24;29.13;;;20.27;;
62724;SDS011;49026;52.600;4.694;2024-03-06T13:20:51;31.40;;;21.70;;
62724;SDS011;49026;52.600;4.694;2024-03-06T13:23:16;30.13;;;18.60;;
62724;SDS011;49026;52.600;4.694;2024-03-06T13:25:44;29.77;;;19.45;;
62724;SDS011;49026;52.600;4.694;2024-03-06T13:28:11;33.10;;;21.60;;
62724;SDS011;49026;52.600;4.694;2024-03-06T13:30:36;32.30;;;22.38;;
62724;SDS011;49026;52.600;4.694;2024-03-06T13:33:03;34.50;;;20.77;;
62724;SDS011;49026;52.600;4.694;2024-03-06T13:35:32;32.72;;;18.52;;
62724;SDS011;49026;52.600;4.694;2024-03-06T13:37:57;28.92;;;20.40;;
62724;SDS011;49026;52.600;4.694;2024-03-06T13:40:23;28.38;;;18.00;;
62724;SDS011;49026;52.600;4.694;2024-03-06T13:42:53;27.75;;;15.98;;
62724;SDS011;49026;52.600;4.694;2024-03-06T13:45:20;32.80;;;19.27;;
62724;SDS011;49026;52.600;4.694;2024-03-06T13:47:46;29.25;;;19.75;;
62724;SDS011;49026;52.600;4.694;2024-03-06T13:50:13;31.50;;;19.20;;
62724;SDS011;49026;52.600;4.694;2024-03-06T13:52:43;27.02;;;19.35;;
62724;SDS011;49026;52.600;4.694;2024-03-06T13:55:08;29.00;;;19.73;;
62724;SDS011;49026;52.600;4.694;2024-03-06T13:57:36;27.48;;;17.55;;
62724;SDS011;49026;52.600;4.694;2024-03-06T14:00:05;29.35;;;17.83;;
62724;SDS011;49026;52.600;4.694;2024-03-06T14:02:38;29.55;;;19.35;;
62724;SDS011;49026;52.600;4.694;2024-03-06T14:05:04;27.63;;;18.27;;
62724;SDS011;49026;52.600;4.694;2024-03-06T14:07:30;27.25;;;16.38;;
62724;SDS011;49026;52.600;4.694;2024-03-06T14:09:58;31.70;;;21.95;;
62724;SDS011;49026;52.600;4.694;2024-03-06T14:12:26;30.63;;;18.80;;
62724;SDS011;49026;52.600;4.694;2024-03-06T14:14:51;26.65;;;19.15;;
62724;SDS011;49026;52.600;4.694;2024-03-06T14:17:19;26.25;;;16.48;;
62724;SDS011;49026;52.600;4.694;2024-03-06T14:19:48;33.10;;;18.95;;
62724;SDS011;49026;52.600;4.694;2024-03-06T14:22:16;30.55;;;19.48;;